createdAt,value
2022-07-25T00:01:25.930Z,62.15
2022-07-25T00:03:59.931Z,62.27
2022-07-25T00:06:28.069Z,62.14
2022-07-25T00:08:57.189Z,62.29
2022-07-25T00:11:25.606Z,62.07
2022-07-25T00:13:54.497Z,62.24
2022-07-25T00:16:24.027Z,62.59
2022-07-25T00:18:54.563Z,62.52
2022-07-25T00:21:23.626Z,62.43
2022-07-25T00:23:55.799Z,62.70
2022-07-25T00:26:25.184Z,62.65
2022-07-25T00:28:53.577Z,62.57
2022-07-25T00:31:23.019Z,62.76
2022-07-25T00:33:53.255Z,62.69
2022-07-25T00:37:15.714Z,62.81
2022-07-25T00:39:44.808Z,62.70
2022-07-25T00:42:13.838Z,62.62
2022-07-25T00:44:45.747Z,62.80
2022-07-25T00:47:16.689Z,62.92
2022-07-25T00:49:47.533Z,62.83
2022-07-25T00:52:16.476Z,62.93
2022-07-25T00:54:47.525Z,63.17
2022-07-25T00:57:19.754Z,63.05
2022-07-25T00:59:52.102Z,63.02
2022-07-25T01:02:26.360Z,63.09
2022-07-25T01:04:58.516Z,63.13
2022-07-25T01:07:30.530Z,63.16
2022-07-25T01:10:08.369Z,63.17
2022-07-25T01:12:58.713Z,63.16
2022-07-25T01:15:34.301Z,63.25
2022-07-25T01:18:07.861Z,63.48
2022-07-25T01:20:40.312Z,63.51
2022-07-25T01:23:12.455Z,63.29
2022-07-25T01:25:43.524Z,63.33
2022-07-25T01:28:15.819Z,63.39
2022-07-25T01:30:43.934Z,63.36
2022-07-25T01:33:18.672Z,63.33
2022-07-25T01:40:44.023Z,63.61
2022-07-25T01:43:15.096Z,63.62
2022-07-25T01:45:43.466Z,63.56
2022-07-25T01:48:18.582Z,63.48
2022-07-25T01:50:55.808Z,63.43
2022-07-25T01:53:34.391Z,63.87
2022-07-25T01:56:08.403Z,63.75
2022-07-25T01:58:44.085Z,63.80
2022-07-25T02:01:12.937Z,63.54
2022-07-25T02:03:44.028Z,63.67
2022-07-25T02:06:12.357Z,63.80
2022-07-25T02:08:43.280Z,63.83
2022-07-25T02:11:13.994Z,63.87
2022-07-25T02:13:43.412Z,63.66
2022-07-25T02:16:28.712Z,64.04
2022-07-25T02:19:04.344Z,64.13
2022-07-25T02:21:41.574Z,63.88
2022-07-25T02:24:10.810Z,63.81
2022-07-25T02:26:40.707Z,63.81
2022-07-25T02:29:25.937Z,63.83
2022-07-25T02:31:54.755Z,64.14
2022-07-25T02:34:24.391Z,64.12
2022-07-25T02:37:04.439Z,64.23
2022-07-25T02:39:33.358Z,63.98
2022-07-25T02:42:13.135Z,63.74
2022-07-25T02:44:48.557Z,63.96
2022-07-25T02:47:28.259Z,64.11
2022-07-25T02:49:57.427Z,64.14
2022-07-25T02:52:28.123Z,64.14
2022-07-25T02:54:58.361Z,64.20
2022-07-25T02:57:46.793Z,64.29
2022-07-25T03:00:19.267Z,64.50
2022-07-25T03:02:49.384Z,64.73
2022-07-25T03:05:20.286Z,64.92
2022-07-25T03:07:52.816Z,64.70
2022-07-25T03:10:35.706Z,64.67
2022-07-25T03:13:05.670Z,65.06
2022-07-25T03:15:40.841Z,64.66
2022-07-25T03:18:10.317Z,65.13
2022-07-25T03:20:45.063Z,64.89
2022-07-25T03:23:16.302Z,64.89
2022-07-25T03:25:50.191Z,64.92
2022-07-25T03:28:18.424Z,64.96
2022-07-25T03:30:53.226Z,64.78
2022-07-25T03:33:28.347Z,64.73
2022-07-25T03:35:57.864Z,64.94
2022-07-25T03:38:25.975Z,65.01
2022-07-25T03:40:58.799Z,65.10
2022-07-25T03:43:26.758Z,65.32
2022-07-25T03:45:54.983Z,65.27
2022-07-25T03:48:26.670Z,65.31
2022-07-25T03:51:02.211Z,65.45
2022-07-25T03:53:58.247Z,65.46
2022-07-25T03:56:26.756Z,65.54
2022-07-25T03:58:55.373Z,65.42
2022-07-25T04:01:26.576Z,65.66
2022-07-25T04:03:55.047Z,65.65
2022-07-25T04:06:30.498Z,65.36
2022-07-25T04:08:59.198Z,65.19
2022-07-25T04:11:31.074Z,65.20
2022-07-25T04:13:59.682Z,65.19
2022-07-25T04:16:29.120Z,65.25
2022-07-25T04:19:09.062Z,65.37
2022-07-25T04:21:40.630Z,65.29
2022-07-25T04:24:11.033Z,65.38
2022-07-25T04:26:40.027Z,65.52
2022-07-25T04:29:10.326Z,65.61
2022-07-25T04:31:41.349Z,65.67
2022-07-25T04:34:12.210Z,65.55
2022-07-25T04:36:44.456Z,65.63
2022-07-25T04:39:19.181Z,65.79
2022-07-25T04:41:47.093Z,65.78
2022-07-25T04:44:19.790Z,65.75
2022-07-25T04:46:51.257Z,65.94
2022-07-25T04:49:25.215Z,65.82
2022-07-25T04:51:55.114Z,65.79
2022-07-25T04:54:27.147Z,65.75
2022-07-25T04:57:05.075Z,65.86
2022-07-25T04:59:32.912Z,65.82
2022-07-25T05:02:02.650Z,66.01
2022-07-25T05:04:33.164Z,65.76
2022-07-25T05:07:03.576Z,66.03
2022-07-25T05:09:34.005Z,65.92
2022-07-25T05:12:01.909Z,65.87
2022-07-25T05:14:35.682Z,65.89
2022-07-25T05:17:04.449Z,65.85
2022-07-25T05:19:36.160Z,65.91
2022-07-25T05:22:08.955Z,65.80
2022-07-25T05:24:41.464Z,65.78
2022-07-25T05:27:14.130Z,65.84
2022-07-25T05:29:59.880Z,65.87
2022-07-25T05:32:33.022Z,65.85
2022-07-25T05:35:03.971Z,65.81
2022-07-25T05:37:34.059Z,65.79
2022-07-25T05:40:02.909Z,65.84
2022-07-25T05:42:31.384Z,65.81
2022-07-25T05:46:04.555Z,65.66
2022-07-25T05:48:48.558Z,65.54
2022-07-25T05:51:17.565Z,65.63
2022-07-25T05:53:52.964Z,65.54
2022-07-25T05:56:56.483Z,65.34
2022-07-25T05:59:48.603Z,65.41
2022-07-25T06:02:29.952Z,65.39
2022-07-25T06:05:01.977Z,65.27
2022-07-25T06:07:32.996Z,65.14
2022-07-25T06:10:01.463Z,65.18
2022-07-25T06:12:37.442Z,65.07
2022-07-25T06:15:06.658Z,64.81
2022-07-25T06:17:34.254Z,64.97
2022-07-25T06:20:02.904Z,64.82
2022-07-25T06:22:32.423Z,64.72
2022-07-25T06:25:03.966Z,64.59
2022-07-25T06:27:32.320Z,64.52
2022-07-25T06:30:00.108Z,64.47
2022-07-25T06:32:28.266Z,64.19
2022-07-25T06:34:56.475Z,64.07
2022-07-25T06:37:25.123Z,64.15
2022-07-25T06:39:53.330Z,64.12
2022-07-25T06:42:21.938Z,64.14
2022-07-25T06:44:51.055Z,63.71
2022-07-25T06:47:18.645Z,63.60
2022-07-25T06:49:47.196Z,63.57
2022-07-25T06:52:16.925Z,63.44
2022-07-25T06:54:45.924Z,63.39
2022-07-25T06:57:14.290Z,63.16
2022-07-25T06:59:42.367Z,63.02
2022-07-25T07:02:12.860Z,62.88
2022-07-25T07:04:41.428Z,62.83
2022-07-25T07:07:10.174Z,62.66
2022-07-25T07:09:40.702Z,62.71
2022-07-25T07:12:11.646Z,62.63
2022-07-25T07:14:45.100Z,62.23
2022-07-25T07:17:14.057Z,62.05
2022-07-25T07:19:44.083Z,62.02
2022-07-25T07:22:13.499Z,61.79
2022-07-25T07:24:44.203Z,61.73
2022-07-25T07:27:13.898Z,61.33
2022-07-25T07:29:43.329Z,61.19
2022-07-25T07:32:12.713Z,60.94
2022-07-25T07:34:45.768Z,60.93
2022-07-25T07:37:14.404Z,60.86
2022-07-25T07:39:47.228Z,60.61
2022-07-25T07:42:16.433Z,59.56
2022-07-25T07:44:45.594Z,57.84
2022-07-25T07:47:17.015Z,56.56
2022-07-25T07:49:50.437Z,55.22
2022-07-25T07:52:20.383Z,54.95
2022-07-25T07:55:10.052Z,54.88
2022-07-25T07:57:41.251Z,53.73
2022-07-25T08:00:16.434Z,53.24
2022-07-25T08:02:50.756Z,52.82
2022-07-25T08:05:26.474Z,52.51
2022-07-25T08:07:56.421Z,52.46
2022-07-25T08:10:26.808Z,52.05
2022-07-25T08:12:58.307Z,50.51
2022-07-25T08:15:26.783Z,50.06
2022-07-25T08:17:56.340Z,49.77
2022-07-25T08:20:38.027Z,49.05
2022-07-25T08:23:10.647Z,48.63
2022-07-25T08:25:39.713Z,48.04
2022-07-25T08:28:09.264Z,47.59
2022-07-25T08:30:40.189Z,46.54
2022-07-25T08:33:10.990Z,46.17
2022-07-25T08:35:41.895Z,45.62
2022-07-25T08:38:11.238Z,44.91
2022-07-25T08:40:41.131Z,44.63
2022-07-25T08:43:13.946Z,44.12
2022-07-25T08:45:50.576Z,43.30
2022-07-25T08:48:21.037Z,43.33
2022-07-25T08:50:50.294Z,42.99
2022-07-25T08:53:37.898Z,42.85
2022-07-25T08:56:13.741Z,41.39
2022-07-25T08:58:44.616Z,40.15
2022-07-25T09:01:14.135Z,40.60
2022-07-25T09:03:44.096Z,40.20
2022-07-25T09:06:20.335Z,40.60
2022-07-25T09:08:59.348Z,39.78
2022-07-25T09:11:35.538Z,38.94
2022-07-25T09:14:13.268Z,38.25
2022-07-25T09:16:47.424Z,37.79
2022-07-25T09:19:18.114Z,38.00
2022-07-25T09:22:05.253Z,37.55
2022-07-25T09:24:35.754Z,37.53
2022-07-25T09:27:14.715Z,37.11
2022-07-25T09:29:43.224Z,37.09
2022-07-25T09:32:22.735Z,36.45
2022-07-25T09:34:51.045Z,36.00
2022-07-25T09:37:25.132Z,36.03
2022-07-25T09:39:54.964Z,36.27
2022-07-25T09:42:36.146Z,36.24
2022-07-25T09:45:12.760Z,36.21
2022-07-25T09:47:54.595Z,35.06
2022-07-25T09:50:25.050Z,35.15
2022-07-25T09:52:54.593Z,34.90
2022-07-25T09:55:23.324Z,34.39
2022-07-25T09:57:52.345Z,34.56
2022-07-25T10:00:24.181Z,34.57
2022-07-25T10:02:54.755Z,33.78
2022-07-25T10:05:44.110Z,33.52
2022-07-25T10:08:13.070Z,33.82
2022-07-25T10:10:42.408Z,33.86
2022-07-25T10:13:31.686Z,33.71
2022-07-25T10:16:01.517Z,33.35
2022-07-25T10:18:33.223Z,33.24
2022-07-25T10:21:25.605Z,33.17
2022-07-25T10:24:01.929Z,32.62
2022-07-25T10:26:29.948Z,32.81
2022-07-25T10:28:59.097Z,32.46
2022-07-25T10:31:53.556Z,32.63
2022-07-25T10:34:33.913Z,32.35
2022-07-25T10:37:17.946Z,32.46
2022-07-25T10:39:47.143Z,32.99
2022-07-25T10:42:17.965Z,32.83
2022-07-25T10:44:48.701Z,32.48
2022-07-25T10:47:17.805Z,32.23
2022-07-25T10:52:42.216Z,32.54
2022-07-25T10:55:22.154Z,32.31
2022-07-25T10:58:17.959Z,31.96
2022-07-25T11:00:51.052Z,32.02
2022-07-25T11:03:22.189Z,32.20
2022-07-25T11:05:54.269Z,32.20
2022-07-25T11:08:30.497Z,31.86
2022-07-25T11:10:58.323Z,31.60
2022-07-25T11:13:27.201Z,31.58
2022-07-25T11:15:59.672Z,31.75
2022-07-25T11:18:38.115Z,31.87
2022-07-25T11:21:09.268Z,31.54
2022-07-25T11:23:37.228Z,31.62
2022-07-25T11:26:10.272Z,31.44
2022-07-25T11:28:42.907Z,32.01
2022-07-25T11:31:14.014Z,31.67
2022-07-25T11:33:44.506Z,31.49
2022-07-25T11:36:14.965Z,31.16
2022-07-25T11:38:47.890Z,31.16
2022-07-25T11:41:27.250Z,31.00
2022-07-25T11:43:55.044Z,31.04
2022-07-25T11:46:24.505Z,31.39
2022-07-25T11:49:06.471Z,31.56
2022-07-25T11:51:39.056Z,30.98
2022-07-25T11:54:12.998Z,30.87
2022-07-25T11:56:45.477Z,30.90
2022-07-25T11:59:17.984Z,31.04
2022-07-25T12:01:47.385Z,31.02
2022-07-25T12:04:28.499Z,30.80
2022-07-25T12:07:06.693Z,30.39
2022-07-25T12:09:42.953Z,30.71
2022-07-25T12:12:14.691Z,30.75
2022-07-25T12:14:47.805Z,30.32
2022-07-25T12:17:16.457Z,30.55
2022-07-25T12:19:47.105Z,30.60
2022-07-25T12:22:17.225Z,30.60
2022-07-25T12:24:46.757Z,30.58
2022-07-25T12:27:15.935Z,30.51
2022-07-25T12:29:45.437Z,30.30
2022-07-25T12:32:14.720Z,30.61
2022-07-25T12:34:44.066Z,30.66
2022-07-25T12:37:13.306Z,30.44
2022-07-25T12:39:41.772Z,30.51
2022-07-25T12:42:10.974Z,30.15
2022-07-25T12:44:42.516Z,30.23
2022-07-25T12:47:14.147Z,30.15
2022-07-25T12:49:44.301Z,29.95
2022-07-25T12:52:12.447Z,30.63
2022-07-25T12:54:41.626Z,30.40
2022-07-25T12:57:14.276Z,30.21
2022-07-25T12:59:43.530Z,30.16
2022-07-25T13:02:11.989Z,30.45
2022-07-25T13:04:40.940Z,30.07
2022-07-25T13:07:13.752Z,29.87
2022-07-25T13:09:44.317Z,29.80
2022-07-25T13:12:16.503Z,29.74
2022-07-25T13:14:44.630Z,29.75
2022-07-25T13:17:15.170Z,29.52
2022-07-25T13:19:43.467Z,29.69
2022-07-25T13:22:13.729Z,29.93
2022-07-25T13:24:41.598Z,30.02
2022-07-25T13:27:12.606Z,29.86
2022-07-25T13:29:43.876Z,29.87
2022-07-25T13:32:14.766Z,29.77
2022-07-25T13:34:44.857Z,29.83
2022-07-25T13:37:14.163Z,29.58
2022-07-25T13:39:46.097Z,29.81
2022-07-25T13:42:17.377Z,29.84
2022-07-25T13:44:48.018Z,29.90
2022-07-25T13:47:19.215Z,29.49
2022-07-25T13:49:47.707Z,29.45
2022-07-25T13:52:18.675Z,29.51
2022-07-25T13:54:46.282Z,29.41
2022-07-25T13:57:16.208Z,29.65
2022-07-25T13:59:44.139Z,29.63
2022-07-25T14:02:12.909Z,29.64
2022-07-25T14:04:41.434Z,29.68
2022-07-25T14:07:09.022Z,29.78
2022-07-25T14:09:38.701Z,29.62
2022-07-25T14:12:08.436Z,29.66
2022-07-25T14:14:39.326Z,30.01
2022-07-25T14:17:09.754Z,29.76
2022-07-25T14:19:40.784Z,29.69
2022-07-25T14:22:09.346Z,29.56
2022-07-25T14:24:38.472Z,29.42
2022-07-25T14:27:08.121Z,29.62
2022-07-25T14:29:38.430Z,29.56
2022-07-25T14:32:08.116Z,29.47
2022-07-25T14:34:37.916Z,29.56
2022-07-25T14:37:06.893Z,29.30
2022-07-25T14:39:39.226Z,29.61
2022-07-25T14:42:10.969Z,29.66
2022-07-25T14:44:41.510Z,29.53
2022-07-25T14:47:14.671Z,29.65
2022-07-25T14:49:50.723Z,29.57
2022-07-25T14:52:23.000Z,29.42
2022-07-25T14:54:50.907Z,29.62
2022-07-25T14:57:19.111Z,29.56
2022-07-25T14:59:49.208Z,29.54
2022-07-25T15:02:19.763Z,29.65
2022-07-25T15:04:47.860Z,29.80
2022-07-25T15:07:16.073Z,29.63
2022-07-25T15:09:45.136Z,29.67
2022-07-25T15:12:16.780Z,29.58
2022-07-25T15:14:48.393Z,29.74
2022-07-25T15:17:18.581Z,29.58
2022-07-25T15:19:48.313Z,29.53
2022-07-25T15:22:22.920Z,29.69
2022-07-25T15:27:42.665Z,29.75
2022-07-25T15:30:28.857Z,29.61
2022-07-25T15:33:00.513Z,29.74
2022-07-25T15:42:01.234Z,29.63
2022-07-25T15:54:38.068Z,29.80
2022-07-25T16:00:43.920Z,29.60
2022-07-25T16:03:17.518Z,29.56
2022-07-25T16:05:52.657Z,29.67
2022-07-25T16:09:33.168Z,29.81
2022-07-25T16:12:04.988Z,29.86
2022-07-25T16:14:39.102Z,29.72
2022-07-25T16:17:09.751Z,29.73
2022-07-25T16:19:39.709Z,29.77
2022-07-25T16:22:50.117Z,29.63
2022-07-25T16:25:41.845Z,29.75
2022-07-25T16:28:53.097Z,29.72
2022-07-25T16:31:44.846Z,29.98
2022-07-25T16:34:30.787Z,29.78
2022-07-25T16:37:06.733Z,29.87
2022-07-25T16:39:37.290Z,30.05
2022-07-25T16:42:06.960Z,30.12
2022-07-25T16:44:35.407Z,30.06
2022-07-25T16:47:06.885Z,30.32
2022-07-25T16:49:36.706Z,30.34
2022-07-25T16:52:08.432Z,30.32
2022-07-25T16:54:38.718Z,30.25
2022-07-25T16:57:24.988Z,30.24
2022-07-25T17:00:02.126Z,30.33
2022-07-25T17:02:58.622Z,30.31
2022-07-25T17:05:58.309Z,30.49
2022-07-25T17:08:31.601Z,30.48
2022-07-25T17:11:03.867Z,30.71
2022-07-25T17:13:36.768Z,30.73
2022-07-25T17:16:07.450Z,30.63
2022-07-25T17:18:38.467Z,30.38
2022-07-25T17:21:32.414Z,30.69
2022-07-25T17:24:07.865Z,30.55
2022-07-25T17:26:57.613Z,30.73
2022-07-25T17:29:27.354Z,30.47
2022-07-25T17:31:55.637Z,30.76
2022-07-25T17:34:26.585Z,30.87
2022-07-25T17:37:53.113Z,30.83
2022-07-25T17:44:27.031Z,30.84
2022-07-25T17:46:56.870Z,31.05
2022-07-25T17:49:29.692Z,30.93
2022-07-25T17:52:22.257Z,31.29
2022-07-25T17:54:56.070Z,31.05
2022-07-25T17:57:29.540Z,30.99
2022-07-25T18:00:03.344Z,31.20
2022-07-25T18:03:36.860Z,31.51
2022-07-25T18:06:08.517Z,31.31
2022-07-25T19:28:41.243Z,34.89
2022-07-25T19:31:12.629Z,35.09
2022-07-25T19:33:45.691Z,35.15
2022-07-25T19:36:14.878Z,35.47
2022-07-25T19:38:53.788Z,35.31
2022-07-25T19:42:00.011Z,35.51
2022-07-25T19:44:52.754Z,35.75
2022-07-25T19:51:04.649Z,35.91
2022-07-25T19:53:55.869Z,35.96
2022-07-25T19:56:28.645Z,36.16
2022-07-25T19:58:58.137Z,36.32
2022-07-25T20:01:33.918Z,36.39
2022-07-25T20:04:04.921Z,36.52
2022-07-25T20:06:37.659Z,36.56
2022-07-25T20:09:06.094Z,36.67
2022-07-25T20:11:36.210Z,36.94
2022-07-25T20:14:07.496Z,36.84
2022-07-25T20:17:36.224Z,37.11
2022-07-25T20:20:29.767Z,37.27
2022-07-25T20:23:21.716Z,37.33
2022-07-25T20:26:07.516Z,37.57
2022-07-25T20:29:04.123Z,37.69
2022-07-25T21:23:35.090Z,39.84
2022-07-25T21:26:53.789Z,40.08
2022-07-25T21:30:01.651Z,40.18
2022-07-25T21:32:36.021Z,40.28
2022-07-25T21:35:22.057Z,40.47
2022-07-25T21:51:54.912Z,41.09
2022-07-25T21:54:28.459Z,41.16
2022-07-25T21:56:56.078Z,41.26
2022-07-25T21:59:24.308Z,41.34
2022-07-25T22:01:53.178Z,41.34
2022-07-25T22:04:23.929Z,41.51
2022-07-25T22:06:53.431Z,41.67
2022-07-25T22:09:22.024Z,41.60
2022-07-25T22:11:50.841Z,41.92
2022-07-25T22:14:25.023Z,41.87
2022-07-25T22:16:59.281Z,42.02
2022-07-25T22:19:28.316Z,42.20
2022-07-25T22:21:57.864Z,42.22
2022-07-25T22:24:26.811Z,42.30
2022-07-25T22:26:56.656Z,42.35
2022-07-25T22:29:26.692Z,42.34
2022-07-25T22:31:55.288Z,42.50
2022-07-25T22:34:23.496Z,42.59
2022-07-25T22:36:52.195Z,42.77
2022-07-25T22:39:21.124Z,42.76
2022-07-25T22:41:50.126Z,42.87
2022-07-25T22:44:18.352Z,42.99
2022-07-25T22:46:50.072Z,43.17
2022-07-25T22:49:18.281Z,43.13
2022-07-25T22:51:46.014Z,43.20
2022-07-25T22:54:16.448Z,43.51
2022-07-25T22:56:44.724Z,43.60
2022-07-25T22:59:15.808Z,43.83
2022-07-25T23:01:46.660Z,43.92
2022-07-25T23:04:17.781Z,44.03
2022-07-25T23:06:48.310Z,43.92
2022-07-25T23:09:20.602Z,44.04
2022-07-25T23:11:53.609Z,44.08
2022-07-25T23:14:39.045Z,44.39
2022-07-25T23:17:36.789Z,44.51
2022-07-25T23:20:13.080Z,44.60
2022-07-25T23:22:46.404Z,44.75
2022-07-25T23:25:22.826Z,44.77
2022-07-25T23:27:55.202Z,44.76
2022-07-25T23:30:30.374Z,45.05
2022-07-25T23:33:02.713Z,45.03
2022-07-25T23:35:36.857Z,45.07
2022-07-25T23:38:10.623Z,45.30
2022-07-25T23:40:40.374Z,45.37
2022-07-25T23:43:29.346Z,45.42
2022-07-25T23:46:15.963Z,45.41
2022-07-25T23:48:48.406Z,45.59
2022-07-25T23:51:25.800Z,45.60
2022-07-25T23:54:10.910Z,45.52
2022-07-25T23:56:49.234Z,45.83
2022-07-25T23:59:35.791Z,45.91
